sensor_id;sensor_type;location;lat;lon;timestamp;pressure;altitude;pressure_sealevel;temperature;humidity
30021;BME280;16861;52.294;7.760;2023-02-27T00:01:46;101023.00;;;3.22;62.52
30021;BME280;16861;52.294;7.760;2023-02-27T00:04:13;101028.25;;;3.21;62.62
30021;BME280;16861;52.294;7.760;2023-02-27T00:06:39;101029.09;;;3.20;62.16
30021;BME280;16861;52.294;7.760;2023-02-27T00:09:06;101023.03;;;3.19;62.54
30021;BME280;16861;52.294;7.760;2023-02-27T00:11:33;101021.28;;;3.18;62.60
30021;BME280;16861;52.294;7.760;2023-02-27T00:14:00;101024.78;;;3.17;62.76
30021;BME280;16861;52.294;7.760;2023-02-27T00:16:26;101020.44;;;3.16;62.52
30021;BME280;16861;52.294;7.760;2023-02-27T00:18:53;101014.38;;;3.16;62.33
30021;BME280;16861;52.294;7.760;2023-02-27T00:21:20;101010.03;;;3.15;62.50
30021;BME280;16861;52.294;7.760;2023-02-27T00:23:46;101015.25;;;3.15;62.80
30021;BME280;16861;52.294;7.760;2023-02-27T00:26:13;101004.84;;;3.11;62.62
30021;BME280;16861;52.294;7.760;2023-02-27T00:28:39;101010.09;;;3.10;62.55
30021;BME280;16861;52.294;7.760;2023-02-27T00:31:06;101011.81;;;3.09;62.49
30021;BME280;16861;52.294;7.760;2023-02-27T00:33:34;101015.28;;;3.08;62.34
30021;BME280;16861;52.294;7.760;2023-02-27T00:36:01;101017.91;;;3.07;62.78
30021;BME280;16861;52.294;7.760;2023-02-27T00:38:28;101010.09;;;3.04;62.94
30021;BME280;16861;52.294;7.760;2023-02-27T00:40:54;101015.31;;;3.02;62.56
30021;BME280;16861;52.294;7.760;2023-02-27T00:43:21;101009.25;;;3.02;62.86
30021;BME280;16861;52.294;7.760;2023-02-27T00:45:47;101013.59;;;2.99;62.40
30021;BME280;16861;52.294;7.760;2023-02-27T00:48:14;101011.88;;;2.97;63.01
30021;BME280;16861;52.294;7.760;2023-02-27T00:50:41;101008.44;;;2.95;62.68
30021;BME280;16861;52.294;7.760;2023-02-27T00:53:08;101012.75;;;2.93;62.65
30021;BME280;16861;52.294;7.760;2023-02-27T00:55:35;101001.50;;;2.91;62.72
30021;BME280;16861;52.294;7.760;2023-02-27T00:58:01;101006.72;;;2.89;63.25
30021;BME280;16861;52.294;7.760;2023-02-27T01:00:28;101002.41;;;2.88;62.97
30021;BME280;16861;52.294;7.760;2023-02-27T01:02:55;101003.25;;;2.87;62.74
30021;BME280;16861;52.294;7.760;2023-02-27T01:05:21;101004.13;;;2.86;63.19
30021;BME280;16861;52.294;7.760;2023-02-27T01:07:48;101005.88;;;2.84;63.11
30021;BME280;16861;52.294;7.760;2023-02-27T01:10:14;101007.59;;;2.82;62.73
30021;BME280;16861;52.294;7.760;2023-02-27T01:12:41;101005.00;;;2.79;62.76
30021;BME280;16861;52.294;7.760;2023-02-27T01:15:08;101010.25;;;2.77;62.98
30021;BME280;16861;52.294;7.760;2023-02-27T01:17:35;101010.25;;;2.74;62.74
30021;BME280;16861;52.294;7.760;2023-02-27T01:20:02;101004.19;;;2.72;63.18
30021;BME280;16861;52.294;7.760;2023-02-27T01:22:28;101005.94;;;2.71;63.13
30021;BME280;16861;52.294;7.760;2023-02-27T01:24:55;100998.97;;;2.70;63.33
30021;BME280;16861;52.294;7.760;2023-02-27T01:27:21;100998.13;;;2.68;63.07
30021;BME280;16861;52.294;7.760;2023-02-27T01:29:48;100999.91;;;2.66;63.37
30021;BME280;16861;52.294;7.760;2023-02-27T01:32:15;100999.91;;;2.66;63.15
30021;BME280;16861;52.294;7.760;2023-02-27T01:34:41;101001.63;;;2.64;62.93
30021;BME280;16861;52.294;7.760;2023-02-27T01:37:08;100996.41;;;2.63;63.49
30021;BME280;16861;52.294;7.760;2023-02-27T01:39:34;100999.03;;;2.61;63.44
30021;BME280;16861;52.294;7.760;2023-02-27T01:42:02;100996.41;;;2.59;63.38
30021;BME280;16861;52.294;7.760;2023-02-27T01:44:30;100992.09;;;2.58;63.24
30021;BME280;16861;52.294;7.760;2023-02-27T01:46:56;100999.91;;;2.60;63.56
30021;BME280;16861;52.294;7.760;2023-02-27T01:49:27;100996.41;;;2.59;63.53
30021;BME280;16861;52.294;7.760;2023-02-27T01:52:01;101006.81;;;2.61;62.95
30021;BME280;16861;52.294;7.760;2023-02-27T01:54:33;101002.50;;;2.63;63.35
30021;BME280;16861;52.294;7.760;2023-02-27T01:57:02;101000.75;;;2.64;63.54
30021;BME280;16861;52.294;7.760;2023-02-27T01:59:33;100999.03;;;2.64;63.40
30021;BME280;16861;52.294;7.760;2023-02-27T02:02:02;101005.94;;;2.65;63.54
30021;BME280;16861;52.294;7.760;2023-02-27T02:04:33;101003.34;;;2.65;63.51
30021;BME280;16861;52.294;7.760;2023-02-27T02:07:05;101003.34;;;2.65;63.06
30021;BME280;16861;52.294;7.760;2023-02-27T02:09:38;101011.13;;;2.64;62.63
30021;BME280;16861;52.294;7.760;2023-02-27T02:12:06;101016.34;;;2.65;63.22
30021;BME280;16861;52.294;7.760;2023-02-27T02:14:34;101012.91;;;2.63;63.38
30021;BME280;16861;52.294;7.760;2023-02-27T02:41:33;101002.53;;;2.47;63.51
30021;BME280;16861;52.294;7.760;2023-02-27T02:44:27;101011.22;;;2.43;62.60
30021;BME280;16861;52.294;7.760;2023-02-27T02:47:13;101012.94;;;2.44;62.71
30021;BME280;16861;52.294;7.760;2023-02-27T02:55:28;101013.81;;;2.45;62.98
30021;BME280;16861;52.294;7.760;2023-02-27T03:03:41;101008.59;;;2.46;63.17
30021;BME280;16861;52.294;7.760;2023-02-27T03:06:16;101011.22;;;2.46;63.41
30021;BME280;16861;52.294;7.760;2023-02-27T03:08:53;101009.50;;;2.44;63.23
30021;BME280;16861;52.294;7.760;2023-02-27T03:11:26;101001.69;;;2.44;63.37
30021;BME280;16861;52.294;7.760;2023-02-27T03:14:05;101000.81;;;2.43;63.26
30021;BME280;16861;52.294;7.760;2023-02-27T03:16:42;101010.34;;;2.46;63.11
30021;BME280;16861;52.294;7.760;2023-02-27T03:19:21;101008.59;;;2.45;63.25
30021;BME280;16861;52.294;7.760;2023-02-27T03:24:46;101014.69;;;2.42;62.71
30021;BME280;16861;52.294;7.760;2023-02-27T03:27:15;101017.28;;;2.44;63.47
30021;BME280;16861;52.294;7.760;2023-02-27T03:29:57;101014.69;;;2.39;62.35
30021;BME280;16861;52.294;7.760;2023-02-27T03:32:33;101023.34;;;2.40;63.34
30021;BME280;16861;52.294;7.760;2023-02-27T03:35:03;101030.28;;;2.39;63.51
30021;BME280;16861;52.294;7.760;2023-02-27T03:40:30;101029.44;;;2.34;62.99
30021;BME280;16861;52.294;7.760;2023-02-27T03:45:53;101030.31;;;2.30;62.89
30021;BME280;16861;52.294;7.760;2023-02-27T03:48:22;101037.22;;;2.31;63.90
30021;BME280;16861;52.294;7.760;2023-02-27T03:50:49;101036.38;;;2.29;63.81
30021;BME280;16861;52.294;7.760;2023-02-27T03:53:39;101038.13;;;2.25;62.62
30021;BME280;16861;52.294;7.760;2023-02-27T03:56:09;101042.44;;;2.28;63.69
30021;BME280;16861;52.294;7.760;2023-02-27T03:58:38;101039.84;;;2.26;64.05
30021;BME280;16861;52.294;7.760;2023-02-27T04:01:05;101054.56;;;2.27;64.00
30021;BME280;16861;52.294;7.760;2023-02-27T04:03:36;101048.50;;;2.25;64.48
30021;BME280;16861;52.294;7.760;2023-02-27T04:06:04;101044.16;;;2.26;64.11
30021;BME280;16861;52.294;7.760;2023-02-27T04:09:10;101045.03;;;2.25;64.17
30021;BME280;16861;52.294;7.760;2023-02-27T04:12:03;101047.63;;;2.21;63.07
30021;BME280;16861;52.294;7.760;2023-02-27T04:17:27;101050.22;;;2.20;63.12
30021;BME280;16861;52.294;7.760;2023-02-27T04:22:53;101040.72;;;2.17;64.46
30021;BME280;16861;52.294;7.760;2023-02-27T04:28:14;101047.66;;;2.14;63.37
30021;BME280;16861;52.294;7.760;2023-02-27T04:33:40;101051.13;;;2.10;63.35
30021;BME280;16861;52.294;7.760;2023-02-27T04:39:25;101046.78;;;2.07;63.04
30021;BME280;16861;52.294;7.760;2023-02-27T04:44:21;101058.03;;;2.09;64.37
30021;BME280;16861;52.294;7.760;2023-02-27T04:46:51;101052.88;;;2.07;64.68
30021;BME280;16861;52.294;7.760;2023-02-27T04:49:23;101054.59;;;2.07;64.23
30021;BME280;16861;52.294;7.760;2023-02-27T04:54:28;101056.31;;;2.11;63.13
30021;BME280;16861;52.294;7.760;2023-02-27T04:57:00;101058.91;;;2.14;64.29
30021;BME280;16861;52.294;7.760;2023-02-27T04:59:33;101059.75;;;2.15;64.20
30021;BME280;16861;52.294;7.760;2023-02-27T05:02:06;101072.75;;;2.15;64.01
30021;BME280;16861;52.294;7.760;2023-02-27T05:04:37;101073.63;;;2.15;64.66
30021;BME280;16861;52.294;7.760;2023-02-27T05:07:07;101077.94;;;2.15;64.97
30021;BME280;16861;52.294;7.760;2023-02-27T05:09:47;101080.53;;;2.13;63.28
30021;BME280;16861;52.294;7.760;2023-02-27T05:15:36;101086.59;;;2.11;63.75
30021;BME280;16861;52.294;7.760;2023-02-27T05:17:50;101096.16;;;2.10;64.37
30021;BME280;16861;52.294;7.760;2023-02-27T05:20:23;101091.81;;;2.09;64.22
30021;BME280;16861;52.294;7.760;2023-02-27T05:22:58;101096.13;;;2.05;63.65
30021;BME280;16861;52.294;7.760;2023-02-27T05:28:35;101104.81;;;2.03;63.18
30021;BME280;16861;52.294;7.760;2023-02-27T05:31:25;101109.13;;;2.04;63.92
30021;BME280;16861;52.294;7.760;2023-02-27T05:33:58;101110.00;;;2.04;63.76
30021;BME280;16861;52.294;7.760;2023-02-27T05:36:39;101109.13;;;2.04;63.56
30021;BME280;16861;52.294;7.760;2023-02-27T05:39:08;101116.03;;;2.05;64.63
30021;BME280;16861;52.294;7.760;2023-02-27T05:41:43;101113.47;;;2.03;63.96
30021;BME280;16861;52.294;7.760;2023-02-27T05:44:16;101117.78;;;2.03;64.33
30021;BME280;16861;52.294;7.760;2023-02-27T05:46:51;101116.06;;;2.03;64.26
30021;BME280;16861;52.294;7.760;2023-02-27T05:49:25;101119.50;;;2.02;64.11
30021;BME280;16861;52.294;7.760;2023-02-27T05:51:54;101116.91;;;2.04;64.39
30021;BME280;16861;52.294;7.760;2023-02-27T05:54:36;101104.78;;;2.00;63.40
30021;BME280;16861;52.294;7.760;2023-02-27T05:57:08;101112.59;;;2.00;64.23
30021;BME280;16861;52.294;7.760;2023-02-27T05:59:51;101111.72;;;1.96;63.22
30021;BME280;16861;52.294;7.760;2023-02-27T06:02:20;101115.16;;;1.98;64.65
30021;BME280;16861;52.294;7.760;2023-02-27T06:04:47;101113.44;;;1.95;64.84
30021;BME280;16861;52.294;7.760;2023-02-27T06:07:14;101109.13;;;1.94;65.21
30021;BME280;16861;52.294;7.760;2023-02-27T06:09:43;101125.56;;;1.92;64.22
30021;BME280;16861;52.294;7.760;2023-02-27T06:12:09;101118.66;;;1.92;64.96
30021;BME280;16861;52.294;7.760;2023-02-27T06:14:36;101112.59;;;1.92;64.78
30021;BME280;16861;52.294;7.760;2023-02-27T06:17:02;101117.78;;;1.92;64.72
30021;BME280;16861;52.294;7.760;2023-02-27T06:19:30;101127.28;;;1.91;64.73
30021;BME280;16861;52.294;7.760;2023-02-27T06:21:56;101127.28;;;1.91;65.10
30021;BME280;16861;52.294;7.760;2023-02-27T06:24:23;101130.75;;;1.90;65.05
30021;BME280;16861;52.294;7.760;2023-02-27T06:26:50;101124.69;;;1.90;65.14
30021;BME280;16861;52.294;7.760;2023-02-27T06:29:17;101129.88;;;1.90;64.81
30021;BME280;16861;52.294;7.760;2023-02-27T06:31:43;101129.03;;;1.88;64.68
30021;BME280;16861;52.294;7.760;2023-02-27T06:34:10;101133.34;;;1.87;64.56
30021;BME280;16861;52.294;7.760;2023-02-27T06:36:36;101126.41;;;1.86;64.75
30021;BME280;16861;52.294;7.760;2023-02-27T06:39:03;101133.38;;;1.86;65.33
30021;BME280;16861;52.294;7.760;2023-02-27T06:41:30;101134.22;;;1.86;64.72
30021;BME280;16861;52.294;7.760;2023-02-27T06:43:56;101128.16;;;1.86;65.05
30021;BME280;16861;52.294;7.760;2023-02-27T06:46:23;101134.22;;;1.86;65.08
30021;BME280;16861;52.294;7.760;2023-02-27T06:48:50;101139.41;;;1.86;64.94
30021;BME280;16861;52.294;7.760;2023-02-27T06:51:24;101136.81;;;1.86;64.37
30021;BME280;16861;52.294;7.760;2023-02-27T06:53:54;101135.94;;;1.87;65.06
30021;BME280;16861;52.294;7.760;2023-02-27T06:56:24;101142.88;;;1.88;65.34
30021;BME280;16861;52.294;7.760;2023-02-27T06:59:09;101143.72;;;1.89;65.31
30021;BME280;16861;52.294;7.760;2023-02-27T07:01:57;101141.13;;;1.89;64.97
30021;BME280;16861;52.294;7.760;2023-02-27T07:04:39;101148.06;;;1.88;64.95
30021;BME280;16861;52.294;7.760;2023-02-27T07:07:14;101142.00;;;1.89;65.29
30021;BME280;16861;52.294;7.760;2023-02-27T07:10:03;101145.47;;;1.90;65.18
30021;BME280;16861;52.294;7.760;2023-02-27T07:12:30;101150.66;;;1.90;65.83
30021;BME280;16861;52.294;7.760;2023-02-27T07:14:57;101148.94;;;1.90;65.97
30021;BME280;16861;52.294;7.760;2023-02-27T07:17:24;101147.22;;;1.91;65.52
30021;BME280;16861;52.294;7.760;2023-02-27T07:19:50;101150.66;;;1.91;65.87
30021;BME280;16861;52.294;7.760;2023-02-27T07:22:17;101150.66;;;1.93;65.38
30021;BME280;16861;52.294;7.760;2023-02-27T07:24:43;101156.75;;;1.95;65.85
30021;BME280;16861;52.294;7.760;2023-02-27T07:27:10;101156.75;;;1.97;65.53
30021;BME280;16861;52.294;7.760;2023-02-27T07:29:36;101161.06;;;2.01;65.65
30021;BME280;16861;52.294;7.760;2023-02-27T07:32:03;101161.06;;;2.02;65.87
30021;BME280;16861;52.294;7.760;2023-02-27T07:34:30;101167.16;;;2.06;65.94
30021;BME280;16861;52.294;7.760;2023-02-27T07:36:56;101161.94;;;2.09;65.98
30021;BME280;16861;52.294;7.760;2023-02-27T07:39:23;101174.06;;;2.13;66.04
30021;BME280;16861;52.294;7.760;2023-02-27T07:41:49;101176.66;;;2.16;65.89
30021;BME280;16861;52.294;7.760;2023-02-27T07:44:16;101175.81;;;2.20;66.20
30021;BME280;16861;52.294;7.760;2023-02-27T07:46:42;101181.88;;;2.24;66.04
30021;BME280;16861;52.294;7.760;2023-02-27T07:49:10;101182.75;;;2.29;66.79
30021;BME280;16861;52.294;7.760;2023-02-27T07:51:36;101181.03;;;2.36;66.34
30021;BME280;16861;52.294;7.760;2023-02-27T07:54:03;101183.63;;;2.44;66.65
30021;BME280;16861;52.294;7.760;2023-02-27T07:56:30;101176.69;;;2.52;67.41
30021;BME280;16861;52.294;7.760;2023-02-27T07:58:56;101181.00;;;2.59;66.59
30021;BME280;16861;52.294;7.760;2023-02-27T08:01:23;101181.84;;;2.68;67.13
30021;BME280;16861;52.294;7.760;2023-02-27T08:03:49;101179.28;;;2.77;67.14
30021;BME280;16861;52.294;7.760;2023-02-27T08:06:16;101184.44;;;2.85;67.28
30021;BME280;16861;52.294;7.760;2023-02-27T08:08:43;101181.81;;;2.93;67.08
30021;BME280;16861;52.294;7.760;2023-02-27T08:11:09;101195.69;;;3.03;66.91
30021;BME280;16861;52.294;7.760;2023-02-27T08:13:36;101184.41;;;3.10;66.73
30021;BME280;16861;52.294;7.760;2023-02-27T08:16:23;101180.88;;;3.22;67.15
30021;BME280;16861;52.294;7.760;2023-02-27T08:18:49;101180.84;;;3.30;66.80
30021;BME280;16861;52.294;7.760;2023-02-27T08:21:16;101179.97;;;3.35;66.68
30021;BME280;16861;52.294;7.760;2023-02-27T08:23:42;101173.00;;;3.42;66.82
30021;BME280;16861;52.294;7.760;2023-02-27T08:26:09;101175.56;;;3.50;66.95
30021;BME280;16861;52.294;7.760;2023-02-27T08:28:37;101181.59;;;3.55;66.41
30021;BME280;16861;52.294;7.760;2023-02-27T08:31:03;101182.44;;;3.63;66.52
30021;BME280;16861;52.294;7.760;2023-02-27T08:33:30;101170.25;;;3.70;66.59
30021;BME280;16861;52.294;7.760;2023-02-27T08:35:57;101183.25;;;3.76;66.26
30021;BME280;16861;52.294;7.760;2023-02-27T08:38:23;101184.09;;;3.83;66.19
30021;BME280;16861;52.294;7.760;2023-02-27T08:40:51;101186.63;;;3.88;66.10
30021;BME280;16861;52.294;7.760;2023-02-27T08:43:19;101177.94;;;3.94;65.91
30021;BME280;16861;52.294;7.760;2023-02-27T08:45:47;101184.00;;;3.97;65.58
30021;BME280;16861;52.294;7.760;2023-02-27T08:48:14;101177.91;;;4.00;65.49
30021;BME280;16861;52.294;7.760;2023-02-27T08:50:42;101177.03;;;4.02;65.31
30021;BME280;16861;52.294;7.760;2023-02-27T08:53:10;101178.75;;;4.03;65.17
30021;BME280;16861;52.294;7.760;2023-02-27T08:55:37;101188.28;;;4.04;65.38
30021;BME280;16861;52.294;7.760;2023-02-27T08:58:03;101179.59;;;4.06;65.26
30021;BME280;16861;52.294;7.760;2023-02-27T09:00:30;101178.72;;;4.07;65.25
30021;BME280;16861;52.294;7.760;2023-02-27T09:02:57;101185.66;;;4.08;65.07
30021;BME280;16861;52.294;7.760;2023-02-27T09:05:25;101178.69;;;4.10;65.56
30021;BME280;16861;52.294;7.760;2023-02-27T09:07:52;101187.38;;;4.12;65.47
30021;BME280;16861;52.294;7.760;2023-02-27T09:10:18;101194.31;;;4.13;65.61
30021;BME280;16861;52.294;7.760;2023-02-27T09:12:45;101196.91;;;4.16;65.78
30021;BME280;16861;52.294;7.760;2023-02-27T09:15:11;101194.28;;;4.19;65.56
30021;BME280;16861;52.294;7.760;2023-02-27T09:17:38;101189.03;;;4.22;65.87
30021;BME280;16861;52.294;7.760;2023-02-27T09:20:05;101193.34;;;4.25;65.89
30021;BME280;16861;52.294;7.760;2023-02-27T09:22:34;101195.06;;;4.27;65.55
30021;BME280;16861;52.294;7.760;2023-02-27T09:25:01;101195.06;;;4.30;65.43
30021;BME280;16861;52.294;7.760;2023-02-27T09:27:27;101198.53;;;4.31;65.48
30021;BME280;16861;52.294;7.760;2023-02-27T09:29:54;101195.03;;;4.35;65.81
30021;BME280;16861;52.294;7.760;2023-02-27T09:32:22;101195.84;;;4.39;65.82
30021;BME280;16861;52.294;7.760;2023-02-27T09:34:49;101190.63;;;4.42;65.93
30021;BME280;16861;52.294;7.760;2023-02-27T09:37:16;101188.84;;;4.47;65.83
30021;BME280;16861;52.294;7.760;2023-02-27T09:39:43;101194.88;;;4.51;65.76
30021;BME280;16861;52.294;7.760;2023-02-27T09:42:20;101194.88;;;4.54;64.64
30021;BME280;16861;52.294;7.760;2023-02-27T09:44:57;101199.16;;;4.60;64.98
30021;BME280;16861;52.294;7.760;2023-02-27T09:47:40;101195.66;;;4.64;64.18
30021;BME280;16861;52.294;7.760;2023-02-27T09:50:36;101193.88;;;4.69;64.25
30021;BME280;16861;52.294;7.760;2023-02-27T09:53:05;101192.06;;;4.77;65.52
30021;BME280;16861;52.294;7.760;2023-02-27T09:55:37;101190.28;;;4.81;65.14
30021;BME280;16861;52.294;7.760;2023-02-27T10:01:45;101197.97;;;4.93;65.17
30021;BME280;16861;52.294;7.760;2023-02-27T10:15:30;101193.22;;;5.30;63.61
30021;BME280;16861;52.294;7.760;2023-02-27T10:18:12;101196.59;;;5.41;64.35
30021;BME280;16861;52.294;7.760;2023-02-27T10:20:56;101186.91;;;5.51;65.05
30021;BME280;16861;52.294;7.760;2023-02-27T10:23:40;101197.28;;;5.56;64.23
30021;BME280;16861;52.294;7.760;2023-02-27T10:26:30;101201.53;;;5.63;63.56
30021;BME280;16861;52.294;7.760;2023-02-27T10:29:01;101203.13;;;5.75;65.45
30021;BME280;16861;52.294;7.760;2023-02-27T10:31:35;101207.28;;;5.89;66.71
30021;BME280;16861;52.294;7.760;2023-02-27T10:34:02;101209.72;;;6.01;66.63
30021;BME280;16861;52.294;7.760;2023-02-27T10:36:28;101200.00;;;6.14;66.75
30021;BME280;16861;52.294;7.760;2023-02-27T10:39:07;101208.50;;;6.27;64.50
30021;BME280;16861;52.294;7.760;2023-02-27T10:41:36;101210.81;;;6.46;66.45
30021;BME280;16861;52.294;7.760;2023-02-27T10:44:05;101219.31;;;6.60;66.52
30021;BME280;16861;52.294;7.760;2023-02-27T10:46:34;101211.19;;;6.76;65.43
30021;BME280;16861;52.294;7.760;2023-02-27T10:49:13;101208.31;;;6.91;63.32
30021;BME280;16861;52.294;7.760;2023-02-27T10:51:42;101211.47;;;7.09;65.55
30021;BME280;16861;52.294;7.760;2023-02-27T10:54:21;101212.19;;;7.17;61.62
30021;BME280;16861;52.294;7.760;2023-02-27T10:56:54;101209.34;;;7.30;63.98
30021;BME280;16861;52.294;7.760;2023-02-27T10:59:32;101209.25;;;7.35;61.35
30021;BME280;16861;52.294;7.760;2023-02-27T11:02:05;101206.44;;;7.44;62.37
30021;BME280;16861;52.294;7.760;2023-02-27T11:04:36;101200.22;;;7.48;62.40
30021;BME280;16861;52.294;7.760;2023-02-27T11:07:06;101198.44;;;7.52;62.83
30021;BME280;16861;52.294;7.760;2023-02-27T11:09:35;101196.53;;;7.60;63.33
30021;BME280;16861;52.294;7.760;2023-02-27T11:12:10;101198.09;;;7.67;60.84
30021;BME280;16861;52.294;7.760;2023-02-27T11:17:40;101189.56;;;7.99;64.30
30021;BME280;16861;52.294;7.760;2023-02-27T11:23:14;101183.50;;;8.33;60.86
30021;BME280;16861;52.294;7.760;2023-02-27T11:25:41;101183.81;;;8.57;64.72
30021;BME280;16861;52.294;7.760;2023-02-27T11:28:27;101175.50;;;8.74;61.94
30021;BME280;16861;52.294;7.760;2023-02-27T11:31:03;101178.34;;;8.99;61.61
30021;BME280;16861;52.294;7.760;2023-02-27T11:33:37;101178.47;;;9.27;62.90
30021;BME280;16861;52.294;7.760;2023-02-27T11:36:05;101179.44;;;9.54;64.23
30021;BME280;16861;52.294;7.760;2023-02-27T11:38:32;101177.72;;;9.82;63.89
30021;BME280;16861;52.294;7.760;2023-02-27T11:41:02;101179.50;;;10.10;61.52
30021;BME280;16861;52.294;7.760;2023-02-27T11:46:07;101172.63;;;10.60;58.20
30021;BME280;16861;52.294;7.760;2023-02-27T11:52:07;101174.31;;;11.12;57.50
30021;BME280;16861;52.294;7.760;2023-02-27T11:54:57;101167.22;;;11.62;58.69
30021;BME280;16861;52.294;7.760;2023-02-27T12:00:15;101162.31;;;12.83;58.92
30021;BME280;16861;52.294;7.760;2023-02-27T12:10:54;101156.53;;;15.64;54.61
30021;BME280;16861;52.294;7.760;2023-02-27T12:13:42;101146.13;;;16.38;59.42
30021;BME280;16861;52.294;7.760;2023-02-27T12:16:30;101142.44;;;17.01;55.50
30021;BME280;16861;52.294;7.760;2023-02-27T12:21:51;101146.94;;;17.84;48.38
30021;BME280;16861;52.294;7.760;2023-02-27T12:24:46;101142.91;;;17.64;44.80
30021;BME280;16861;52.294;7.760;2023-02-27T12:27:30;101149.97;;;17.09;42.92
30021;BME280;16861;52.294;7.760;2023-02-27T12:30:05;101147.31;;;16.49;44.48
30021;BME280;16861;52.294;7.760;2023-02-27T12:32:39;101146.56;;;15.84;45.34
30021;BME280;16861;52.294;7.760;2023-02-27T12:35:16;101147.19;;;15.24;45.46
30021;BME280;16861;52.294;7.760;2023-02-27T12:37:44;101141.53;;;14.81;48.68
30021;BME280;16861;52.294;7.760;2023-02-27T12:40:16;101149.03;;;14.37;47.10
30021;BME280;16861;52.294;7.760;2023-02-27T12:42:54;101146.34;;;14.02;47.09
30021;BME280;16861;52.294;7.760;2023-02-27T12:45:38;101145.81;;;13.76;47.27
30021;BME280;16861;52.294;7.760;2023-02-27T13:05:27;101143.19;;;11.69;49.44
30021;BME280;16861;52.294;7.760;2023-02-27T13:13:26;101144.75;;;11.51;49.06
30021;BME280;16861;52.294;7.760;2023-02-27T13:15:57;101140.53;;;11.69;53.86
30021;BME280;16861;52.294;7.760;2023-02-27T13:18:39;101148.09;;;12.01;51.84
30021;BME280;16861;52.294;7.760;2023-02-27T13:21:35;101140.72;;;12.53;52.80
30021;BME280;16861;52.294;7.760;2023-02-27T13:24:23;101140.81;;;13.12;53.78
30021;BME280;16861;52.294;7.760;2023-02-27T13:29:40;101127.41;;;14.10;51.40
30021;BME280;16861;52.294;7.760;2023-02-27T13:37:58;101121.34;;;14.61;47.26
30021;BME280;16861;52.294;7.760;2023-02-27T13:40:28;101131.59;;;14.67;50.79
30021;BME280;16861;52.294;7.760;2023-02-27T13:42:58;101123.91;;;14.62;49.05
30021;BME280;16861;52.294;7.760;2023-02-27T13:45:47;101128.97;;;14.49;46.87
30021;BME280;16861;52.294;7.760;2023-02-27T13:48:43;101123.28;;;14.39;47.33
30021;BME280;16861;52.294;7.760;2023-02-27T13:51:48;101128.13;;;14.31;47.14
30021;BME280;16861;52.294;7.760;2023-02-27T13:54:20;101122.94;;;14.29;50.67
30021;BME280;16861;52.294;7.760;2023-02-27T14:04:26;101131.94;;;14.61;48.63
30021;BME280;16861;52.294;7.760;2023-02-27T14:07:08;101131.06;;;14.60;45.50
30021;BME280;16861;52.294;7.760;2023-02-27T14:09:39;101127.97;;;14.52;46.20
30021;BME280;16861;52.294;7.760;2023-02-27T14:12:32;101132.94;;;14.23;45.04
30021;BME280;16861;52.294;7.760;2023-02-27T14:17:44;101126.34;;;14.14;49.76
30021;BME280;16861;52.294;7.760;2023-02-27T14:23:08;101127.00;;;14.70;50.25
30021;BME280;16861;52.294;7.760;2023-02-27T14:25:37;101129.88;;;15.33;51.03
30021;BME280;16861;52.294;7.760;2023-02-27T14:28:13;101123.63;;;15.99;50.05
30021;BME280;16861;52.294;7.760;2023-02-27T14:30:45;101133.88;;;16.66;50.40
30021;BME280;16861;52.294;7.760;2023-02-27T14:33:23;101130.16;;;17.27;48.16
30021;BME280;16861;52.294;7.760;2023-02-27T14:36:18;101141.75;;;17.83;48.02
30021;BME280;16861;52.294;7.760;2023-02-27T14:38:45;101135.47;;;18.25;49.63
30021;BME280;16861;52.294;7.760;2023-02-27T14:41:29;101127.94;;;18.57;45.00
30021;BME280;16861;52.294;7.760;2023-02-27T14:44:01;101126.97;;;18.97;48.85
30021;BME280;16861;52.294;7.760;2023-02-27T14:46:38;101130.06;;;19.30;43.45
30021;BME280;16861;52.294;7.760;2023-02-27T14:49:15;101122.00;;;19.67;45.79
30021;BME280;16861;52.294;7.760;2023-02-27T14:51:43;101124.03;;;20.01;47.38
30021;BME280;16861;52.294;7.760;2023-02-27T14:54:19;101123.72;;;20.29;43.26
30021;BME280;16861;52.294;7.760;2023-02-27T14:57:00;101124.16;;;20.59;41.74
30021;BME280;16861;52.294;7.760;2023-02-27T14:59:40;101117.63;;;20.86;41.57
30021;BME280;16861;52.294;7.760;2023-02-27T15:02:32;101126.03;;;21.04;41.88
30021;BME280;16861;52.294;7.760;2023-02-27T15:07:29;101116.38;;;21.35;41.04
30021;BME280;16861;52.294;7.760;2023-02-27T15:09:58;101117.22;;;21.47;41.48
30021;BME280;16861;52.294;7.760;2023-02-27T15:12:29;101119.13;;;21.57;43.93
30021;BME280;16861;52.294;7.760;2023-02-27T15:14:58;101113.59;;;21.70;42.40
30021;BME280;16861;52.294;7.760;2023-02-27T15:17:37;101114.47;;;21.70;41.33
30021;BME280;16861;52.294;7.760;2023-02-27T15:20:27;101120.84;;;21.58;39.60
30021;BME280;16861;52.294;7.760;2023-02-27T15:22:59;101127.28;;;21.55;38.19
30021;BME280;16861;52.294;7.760;2023-02-27T15:27:56;101126.59;;;21.42;38.77
30021;BME280;16861;52.294;7.760;2023-02-27T15:30:24;101125.28;;;21.36;39.86
30021;BME280;16861;52.294;7.760;2023-02-27T15:32:51;101116.53;;;21.22;38.85
30021;BME280;16861;52.294;7.760;2023-02-27T15:35:22;101119.59;;;20.95;37.77
30021;BME280;16861;52.294;7.760;2023-02-27T15:37:54;101119.38;;;20.39;34.11
30021;BME280;16861;52.294;7.760;2023-02-27T15:40:26;101106.72;;;19.70;34.68
30021;BME280;16861;52.294;7.760;2023-02-27T15:42:54;101126.47;;;18.92;35.96
30021;BME280;16861;52.294;7.760;2023-02-27T15:45:25;101118.88;;;18.06;35.33
30021;BME280;16861;52.294;7.760;2023-02-27T15:47:53;101111.34;;;17.30;37.55
30021;BME280;16861;52.294;7.760;2023-02-27T15:50:27;101116.66;;;16.58;37.79
30021;BME280;16861;52.294;7.760;2023-02-27T15:53:19;101126.91;;;15.72;36.81
30021;BME280;16861;52.294;7.760;2023-02-27T15:56:00;101125.94;;;15.08;37.78
30021;BME280;16861;52.294;7.760;2023-02-27T15:58:36;101128.75;;;14.54;38.51
30021;BME280;16861;52.294;7.760;2023-02-27T16:01:06;101137.88;;;14.13;40.85
30021;BME280;16861;52.294;7.760;2023-02-27T16:03:40;101137.38;;;13.67;40.03